Time;durP1;ratioP1;P1;durP2;ratioP2;P2;SDS_P1;SDS_P2;PMS_P1;PMS_P2;Temp;Humidity;BMP_temperature;BMP_pressure;BME280_temperature;BME280_humidity;BME280_pressure;Samples;Min_cycle;Max_cycle;Signal;HPM_P1;HPM_P2
2020/12/01 00:01:15;;;;;;;26.30;2.63;;;7.90;99.90;;;;;;5093699;28;20107;-68
2020/12/01 00:03:41;;;;;;;19.35;2.75;;;7.90;99.90;;;;;;5092815;28;20107;-68
2020/12/01 00:06:07;;;;;;;18.27;2.72;;;8.00;99.90;;;;;;5093580;28;20031;-68
2020/12/01 00:08:37;;;;;;;30.63;2.90;;;7.90;99.90;;;;;;5086483;28;20021;-68
2020/12/01 00:11:04;;;;;;;24.40;2.83;;;7.80;99.90;;;;;;5085303;28;20052;-68
2020/12/01 00:13:29;;;;;;;20.05;2.95;;;7.80;99.90;;;;;;5092886;28;20064;-68
2020/12/01 00:15:55;;;;;;;24.23;3.63;;;7.80;99.90;;;;;;5092966;28;20028;-68
2020/12/01 00:18:20;;;;;;;24.77;3.05;;;7.70;99.90;;;;;;5092087;28;20028;-68
2020/12/01 00:20:47;;;;;;;26.55;3.03;;;7.60;99.90;;;;;;5093060;28;20094;-68
2020/12/01 00:23:12;;;;;;;29.42;5.15;;;7.60;99.90;;;;;;5093275;28;20056;-68
2020/12/01 00:25:38;;;;;;;41.55;5.80;;;7.70;99.90;;;;;;5092331;28;20062;-68
2020/12/01 00:28:03;;;;;;;28.08;3.08;;;7.70;99.90;;;;;;5093263;28;20035;-68
2020/12/01 00:30:29;;;;;;;23.38;2.95;;;7.70;99.90;;;;;;5078417;28;20035;-68
2020/12/01 00:32:55;;;;;;;15.50;3.75;;;7.70;99.90;;;;;;5092449;28;20020;-68
2020/12/01 00:35:24;;;;;;;16.98;3.50;;;7.70;99.90;;;;;;5092660;28;20434;-68
2020/12/01 00:37:50;;;;;;;29.60;3.55;;;7.70;99.90;;;;;;5091759;28;20070;-68
2020/12/01 00:40:16;;;;;;;21.08;3.00;;;7.60;99.90;;;;;;5092625;28;20028;-68
2020/12/01 00:42:42;;;;;;;21.15;3.55;;;7.60;99.90;;;;;;5092472;28;20397;-68
2020/12/01 00:45:09;;;;;;;32.38;3.08;;;7.60;99.90;;;;;;5091934;28;20066;-68
2020/12/01 00:47:35;;;;;;;23.65;3.00;;;7.50;99.90;;;;;;5092155;28;20028;-68
2020/12/01 00:50:02;;;;;;;17.85;2.65;;;7.50;99.90;;;;;;5092530;28;20478;-68
2020/12/01 00:52:28;;;;;;;23.65;2.78;;;7.50;99.90;;;;;;5091873;28;20024;-68
2020/12/01 00:54:53;;;;;;;29.90;3.88;;;7.50;99.90;;;;;;5092270;28;20517;-68
2020/12/01 00:57:19;;;;;;;32.55;4.55;;;7.40;99.90;;;;;;5092294;28;20422;-68
2020/12/01 00:59:44;;;;;;;19.55;3.65;;;7.40;99.90;;;;;;5091397;28;20020;-68
2020/12/01 01:02:10;;;;;;;20.95;2.92;;;7.30;99.90;;;;;;5092545;28;20055;-68
2020/12/01 01:04:35;;;;;;;31.67;3.67;;;7.30;99.90;;;;;;5092032;28;20376;-68
2020/12/01 01:07:01;;;;;;;32.70;3.08;;;7.20;99.90;;;;;;5091715;28;20020;-68
2020/12/01 01:09:26;;;;;;;20.98;2.83;;;7.30;99.90;;;;;;5077991;28;20169;-68
2020/12/01 01:11:52;;;;;;;11.98;2.60;;;7.20;99.90;;;;;;5091468;28;20048;-68
2020/12/01 01:14:18;;;;;;;23.02;4.80;;;7.20;99.90;;;;;;5091304;28;20103;-68
2020/12/01 01:16:44;;;;;;;21.67;3.10;;;7.20;99.90;;;;;;5091588;28;20106;-67
2020/12/01 01:19:11;;;;;;;26.05;2.50;;;7.20;99.90;;;;;;5091779;28;20491;-68
2020/12/01 01:21:45;;;;;;;25.25;2.60;;;7.20;99.90;;;;;;5090642;28;20024;-68
2020/12/01 01:24:12;;;;;;;18.08;2.30;;;7.20;99.90;;;;;;5091937;28;20493;-68
2020/12/01 01:26:38;;;;;;;19.92;2.40;;;7.10;99.90;;;;;;5091387;28;20073;-68
2020/12/01 01:29:04;;;;;;;21.58;3.08;;;7.20;99.90;;;;;;5091521;28;20024;-68
2020/12/01 01:31:29;;;;;;;27.23;2.30;;;7.10;99.90;;;;;;5091816;28;20024;-67
2020/12/01 01:33:55;;;;;;;26.95;3.53;;;7.20;99.90;;;;;;5076880;28;20430;-68
2020/12/01 01:36:21;;;;;;;25.98;3.33;;;7.20;99.90;;;;;;5092053;28;20406;-67
2020/12/01 01:38:46;;;;;;;15.68;1.90;;;7.20;99.90;;;;;;5091464;28;20048;-68
2020/12/01 01:41:12;;;;;;;18.35;2.38;;;7.10;99.90;;;;;;5090996;28;20569;-68
2020/12/01 01:43:38;;;;;;;23.23;4.47;;;7.00;99.90;;;;;;5091502;28;20078;-67
2020/12/01 01:46:31;;;;;;;24.98;2.65;;;7.00;99.90;;;;;;5091845;28;20080;-68
2020/12/01 01:48:57;;;;;;;19.65;3.65;;;7.00;99.90;;;;;;5090668;28;20028;-67
2020/12/01 01:51:22;;;;;;;18.42;2.92;;;6.90;99.90;;;;;;5091411;28;20031;-68
2020/12/01 01:53:51;;;;;;;14.73;2.10;;;7.00;99.90;;;;;;5090813;28;20023;-68
2020/12/01 01:56:23;;;;;;;18.95;2.25;;;6.90;99.90;;;;;;5090618;28;20024;-68
2020/12/01 01:58:50;;;;;;;19.10;2.85;;;6.90;99.90;;;;;;5090934;28;20030;-68
2020/12/01 02:01:19;;;;;;;12.52;2.80;;;6.90;99.90;;;;;;5090901;28;20069;-68
2020/12/01 02:03:54;;;;;;;21.13;2.47;;;7.00;99.90;;;;;;5090468;28;20109;-68
2020/12/01 02:06:21;;;;;;;18.13;2.55;;;7.10;99.90;;;;;;5091136;28;20360;-68
2020/12/01 02:08:52;;;;;;;10.85;2.08;;;7.20;99.90;;;;;;5081106;28;20525;-68
2020/12/01 02:11:21;;;;;;;11.48;1.73;;;7.30;99.90;;;;;;5085392;28;20143;-68
2020/12/01 02:14:12;;;;;;;12.02;1.35;;;7.30;99.90;;;;;;5090943;28;20062;-68
2020/12/01 02:16:42;;;;;;;12.73;2.35;;;7.30;99.90;;;;;;5090033;28;20375;-68
2020/12/01 02:19:12;;;;;;;17.73;2.77;;;7.30;99.90;;;;;;5091239;28;20024;-67
2020/12/01 02:21:39;;;;;;;17.80;2.22;;;7.30;99.90;;;;;;5090532;28;20804;-67
2020/12/01 02:24:15;;;;;;;11.75;1.92;;;7.30;99.90;;;;;;5090487;28;20452;-67
2020/12/01 02:26:41;;;;;;;12.85;1.77;;;7.30;99.90;;;;;;5090684;28;20036;-68
2020/12/01 02:29:12;;;;;;;12.45;1.65;;;7.30;99.90;;;;;;5090979;28;20028;-68
2020/12/01 02:31:38;;;;;;;10.32;1.23;;;7.30;99.90;;;;;;5090245;28;20076;-68
2020/12/01 02:34:10;;;;;;;14.88;2.30;;;7.20;99.90;;;;;;5091001;28;20065;-68
2020/12/01 02:36:36;;;;;;;15.57;2.95;;;7.30;99.90;;;;;;5090779;28;20103;-68
2020/12/01 02:39:02;;;;;;;12.10;1.67;;;7.30;99.90;;;;;;5090233;28;20107;-68
2020/12/01 02:41:28;;;;;;;12.98;1.67;;;7.30;99.90;;;;;;5090986;28;20036;-67
2020/12/01 02:43:53;;;;;;;8.73;1.35;;;7.30;99.90;;;;;;5090014;28;20069;-68
2020/12/01 02:46:19;;;;;;;10.35;1.63;;;7.30;99.90;;;;;;5090045;28;20024;-68
2020/12/01 02:48:45;;;;;;;13.77;1.90;;;7.30;99.90;;;;;;5090153;28;20024;-68
2020/12/01 02:51:11;;;;;;;9.57;1.83;;;7.30;99.90;;;;;;5090591;28;20107;-68
2020/12/01 02:53:36;;;;;;;18.92;2.25;;;7.40;99.90;;;;;;5090002;28;20108;-68
2020/12/01 02:56:02;;;;;;;15.75;1.70;;;7.40;99.90;;;;;;5090448;28;20035;-68
2020/12/01 02:58:27;;;;;;;5.45;1.17;;;7.40;99.90;;;;;;5090156;28;20051;-68
2020/12/01 03:00:53;;;;;;;17.45;2.22;;;7.50;99.90;;;;;;5090420;28;20032;-68
2020/12/01 03:03:18;;;;;;;17.23;1.90;;;7.40;99.90;;;;;;5090732;28;20024;-68
2020/12/01 03:05:44;;;;;;;15.82;2.92;;;7.50;99.90;;;;;;5089770;28;20093;-68
2020/12/01 03:08:09;;;;;;;9.55;2.40;;;7.50;99.90;;;;;;5088438;28;20013;-68
2020/12/01 03:10:35;;;;;;;21.35;1.92;;;7.40;99.90;;;;;;5078991;28;20403;-68
2020/12/01 03:13:00;;;;;;;15.30;1.65;;;7.40;99.90;;;;;;5091114;28;20083;-68
2020/12/01 03:15:26;;;;;;;23.15;2.40;;;7.50;99.90;;;;;;5094239;28;20039;-68
2020/12/01 03:17:52;;;;;;;15.40;3.85;;;7.50;99.90;;;;;;5094597;28;20100;-68
2020/12/01 03:20:17;;;;;;;20.08;1.90;;;7.40;99.90;;;;;;5093844;28;20379;-68
2020/12/01 03:22:43;;;;;;;18.20;1.73;;;7.40;99.90;;;;;;5094443;28;20024;-68
2020/12/01 03:25:08;;;;;;;23.30;2.20;;;7.50;99.90;;;;;;5095193;28;20435;-68
2020/12/01 03:27:34;;;;;;;16.23;1.70;;;7.50;99.90;;;;;;5094382;28;20432;-68
2020/12/01 03:29:59;;;;;;;18.05;2.20;;;7.50;99.90;;;;;;5095440;28;20036;-68
2020/12/01 03:32:25;;;;;;;24.55;1.58;;;7.60;99.90;;;;;;5095316;28;20034;-68
2020/12/01 03:34:52;;;;;;;25.83;2.05;;;7.50;99.90;;;;;;5093494;28;20039;-68
2020/12/01 03:37:18;;;;;;;9.40;1.25;;;7.50;99.90;;;;;;5093698;28;20067;-68
2020/12/01 03:39:43;;;;;;;11.25;1.65;;;7.60;99.90;;;;;;5093497;28;20123;-68
2020/12/01 03:42:09;;;;;;;6.63;1.20;;;7.60;99.90;;;;;;5092900;28;20020;-68
2020/12/01 03:44:35;;;;;;;11.75;1.90;;;7.60;99.90;;;;;;5093446;28;20025;-68
2020/12/01 03:47:00;;;;;;;9.98;1.50;;;7.60;99.90;;;;;;5093494;28;20032;-68
2020/12/01 03:49:26;;;;;;;7.85;2.13;;;7.50;99.90;;;;;;5093001;28;20028;-68
2020/12/01 03:51:51;;;;;;;10.48;1.23;;;7.60;99.90;;;;;;5093398;28;20028;-68
2020/12/01 03:54:17;;;;;;;8.60;1.40;;;7.60;99.90;;;;;;5093307;28;20020;-68
2020/12/01 03:56:42;;;;;;;9.20;1.70;;;7.60;99.90;;;;;;5092370;28;20051;-68
2020/12/01 03:59:08;;;;;;;13.40;1.65;;;7.60;99.90;;;;;;5093105;28;20375;-68
2020/12/01 04:01:34;;;;;;;14.98;1.38;;;7.70;99.90;;;;;;5078552;28;20031;-68
2020/12/01 04:03:59;;;;;;;10.80;1.38;;;7.80;99.90;;;;;;5072851;28;20032;-68
2020/12/01 04:06:25;;;;;;;9.00;1.23;;;7.80;99.90;;;;;;5073028;28;20476;-68
2020/12/01 04:08:50;;;;;;;11.07;2.78;;;7.80;99.90;;;;;;5071864;28;20044;-68
2020/12/01 04:11:17;;;;;;;7.75;1.25;;;7.80;99.90;;;;;;5072511;28;20044;-68
2020/12/01 04:13:42;;;;;;;12.68;1.60;;;7.80;99.90;;;;;;5072553;28;20491;-69
2020/12/01 04:16:08;;;;;;;13.98;2.72;;;7.90;99.90;;;;;;5072256;28;20024;-68
2020/12/01 04:18:33;;;;;;;9.52;2.00;;;8.00;99.90;;;;;;5072485;28;20031;-68
2020/12/01 04:20:59;;;;;;;12.63;1.88;;;8.10;99.90;;;;;;5072897;28;20035;-68
2020/12/01 04:23:25;;;;;;;16.52;2.28;;;8.20;99.90;;;;;;5071571;28;20120;-69
2020/12/01 04:25:51;;;;;;;31.45;3.70;;;8.20;99.90;;;;;;5072349;28;20024;-68
2020/12/01 04:28:16;;;;;;;25.20;3.67;;;8.20;99.90;;;;;;5072613;28;20096;-68
2020/12/01 04:30:42;;;;;;;14.93;3.03;;;8.20;99.90;;;;;;5071538;28;20399;-68
2020/12/01 04:33:07;;;;;;;27.17;2.65;;;8.20;99.90;;;;;;5072492;28;20031;-68
2020/12/01 04:35:33;;;;;;;39.70;5.07;;;8.30;99.90;;;;;;5072259;28;20027;-68
2020/12/01 04:38:03;;;;;;;26.63;3.42;;;8.30;99.90;;;;;;5072553;28;20028;-68
2020/12/01 04:40:36;;;;;;;30.65;4.07;;;8.30;99.90;;;;;;5072131;28;20051;-68
2020/12/01 04:43:11;;;;;;;25.52;4.20;;;8.30;99.90;;;;;;5072756;28;20256;-68
2020/12/01 04:45:38;;;;;;;34.65;4.25;;;8.30;99.90;;;;;;5071081;28;20020;-68
2020/12/01 04:48:11;;;;;;;30.60;5.40;;;8.30;99.90;;;;;;5072234;28;20024;-68
2020/12/01 04:50:43;;;;;;;33.72;5.22;;;8.40;99.90;;;;;;5071763;28;20064;-68
2020/12/01 04:53:32;;;;;;;22.90;3.25;;;8.30;99.90;;;;;;5071356;28;20035;-68
2020/12/01 04:56:20;;;;;;;28.08;3.85;;;8.30;99.90;;;;;;5072092;28;20392;-68
2020/12/01 04:58:56;;;;;;;33.13;5.70;;;8.40;99.90;;;;;;5070951;28;20403;-68
2020/12/01 05:01:42;;;;;;;23.70;3.17;;;8.30;99.90;;;;;;5071877;28;20013;-68
2020/12/01 05:04:21;;;;;;;29.73;4.80;;;8.40;99.90;;;;;;5071815;28;20150;-68
2020/12/01 05:07:18;;;;;;;30.77;4.47;;;8.40;99.90;;;;;;5070958;28;20496;-68
2020/12/01 05:10:09;;;;;;;30.90;3.95;;;8.30;99.90;;;;;;5071218;28;20036;-68
2020/12/01 05:12:39;;;;;;;20.73;3.42;;;8.30;99.90;;;;;;5070696;28;20049;-68
2020/12/01 05:15:20;;;;;;;22.98;4.13;;;8.30;99.90;;;;;;5071816;28;20036;-68
2020/12/01 05:18:13;;;;;;;20.10;3.17;;;8.30;99.90;;;;;;5071389;28;20074;-68
2020/12/01 05:20:52;;;;;;;31.08;3.53;;;8.40;99.90;;;;;;5071183;28;20031;-66
2020/12/01 05:23:33;;;;;;;25.23;3.95;;;8.30;99.90;;;;;;5072005;28;20020;-69
2020/12/01 05:26:01;;;;;;;18.40;3.08;;;8.30;99.90;;;;;;5070795;28;20105;-67
2020/12/01 05:28:27;;;;;;;34.30;4.82;;;8.30;99.90;;;;;;5071228;28;20031;-67
2020/12/01 05:31:05;;;;;;;35.45;3.78;;;8.30;99.90;;;;;;5071050;28;20080;-66
2020/12/01 05:33:33;;;;;;;20.63;2.72;;;8.30;99.90;;;;;;5070316;28;20035;-67
2020/12/01 05:36:14;;;;;;;14.30;3.33;;;8.30;99.90;;;;;;5070602;28;20198;-67
2020/12/01 05:38:39;;;;;;;;;;;8.40;99.90;;;;;;5071492;28;20134;-66
2020/12/01 05:41:24;;;;;;;21.77;2.67;;;8.40;99.90;;;;;;5070333;28;19955;-69
2020/12/01 05:44:04;;;;;;;23.20;2.65;;;8.30;99.90;;;;;;5071080;28;20210;-66
2020/12/01 05:46:43;;;;;;;11.93;2.30;;;8.40;99.90;;;;;;5070665;28;20073;-66
2020/12/01 05:49:30;;;;;;;27.05;3.22;;;8.40;99.90;;;;;;5070658;28;20029;-66
2020/12/01 05:52:18;;;;;;;12.73;2.78;;;8.40;99.90;;;;;;5070759;28;20033;-67
2020/12/01 05:54:46;;;;;;;14.93;3.10;;;8.40;99.90;;;;;;5069962;28;20475;-67
2020/12/01 05:57:29;;;;;;;15.50;2.85;;;8.40;99.90;;;;;;5070655;28;20719;-67
2020/12/01 05:59:57;;;;;;;14.25;3.53;;;8.30;99.90;;;;;;5071002;28;20025;-67
2020/12/01 06:02:48;;;;;;;16.42;2.55;;;8.40;99.90;;;;;;5070418;28;20350;-67
2020/12/01 06:05:20;;;;;;;14.98;3.03;;;8.30;99.90;;;;;;5062929;28;20047;-67
2020/12/01 06:07:48;;;;;;;18.58;3.05;;;8.30;99.90;;;;;;5070687;28;20037;-68
2020/12/01 06:10:32;;;;;;;15.65;2.65;;;8.30;99.90;;;;;;5069735;28;20051;-67
2020/12/01 06:13:16;;;;;;;22.55;2.60;;;8.30;99.90;;;;;;5070800;28;20021;-68
2020/12/01 06:15:57;;;;;;;16.85;2.95;;;8.40;99.90;;;;;;5069680;28;20036;-67
2020/12/01 06:18:45;;;;;;;17.17;2.25;;;8.40;99.90;;;;;;5070424;28;20056;-67
2020/12/01 06:21:12;;;;;;;22.42;3.42;;;8.40;99.90;;;;;;5070176;28;20028;-67
2020/12/01 06:23:58;;;;;;;23.08;3.33;;;8.30;99.90;;;;;;5070225;28;20119;-67
2020/12/01 06:26:42;;;;;;;17.23;2.63;;;8.30;99.90;;;;;;5086537;28;20020;-67
2020/12/01 06:29:31;;;;;;;21.27;3.55;;;8.30;99.90;;;;;;5087177;28;20098;-67
2020/12/01 06:32:27;;;;;;;26.23;3.75;;;8.30;99.90;;;;;;5087261;28;20024;-67
2020/12/01 06:35:17;;;;;;;18.42;3.00;;;8.30;99.90;;;;;;5086697;28;20431;-67
2020/12/01 06:38:08;;;;;;;33.78;4.60;;;8.30;99.90;;;;;;5086868;28;20036;-67
2020/12/01 06:40:42;;;;;;;31.42;4.43;;;8.30;99.90;;;;;;5082805;28;20049;-66
2020/12/01 06:43:16;;;;;;;31.25;4.05;;;8.20;99.90;;;;;;5085779;28;20054;-67
2020/12/01 06:45:49;;;;;;;37.60;3.60;;;8.20;99.90;;;;;;5088051;28;20027;-67
2020/12/01 06:48:24;;;;;;;48.83;5.95;;;8.20;99.90;;;;;;5090444;28;20026;-66
2020/12/01 06:50:55;;;;;;;26.23;4.32;;;8.20;99.90;;;;;;5092055;28;20196;-67
2020/12/01 06:53:38;;;;;;;38.83;3.85;;;8.20;99.90;;;;;;5091260;28;20019;-67
2020/12/01 06:56:07;;;;;;;31.23;3.72;;;8.20;99.90;;;;;;5087146;28;20736;-67
2020/12/01 06:58:39;;;;;;;27.50;4.00;;;8.20;99.90;;;;;;5090239;28;20025;-68
2020/12/01 07:01:08;;;;;;;29.40;4.43;;;8.30;99.90;;;;;;5091578;28;20130;-68
2020/12/01 07:03:34;;;;;;;20.85;3.60;;;8.30;99.90;;;;;;5090366;28;20016;-67
2020/12/01 07:06:17;;;;;;;19.17;3.67;;;8.30;99.90;;;;;;5092082;28;20483;-68
2020/12/01 07:08:43;;;;;;;33.10;3.45;;;8.20;99.90;;;;;;5092116;28;20085;-68
2020/12/01 07:11:30;;;;;;;16.80;3.15;;;8.20;99.90;;;;;;5089483;28;20123;-66
2020/12/01 07:14:15;;;;;;;23.70;3.60;;;8.20;99.90;;;;;;5092063;28;20024;-67
2020/12/01 07:16:47;;;;;;;16.75;3.10;;;8.20;99.90;;;;;;5089151;28;20102;-66
2020/12/01 07:19:19;;;;;;;29.63;3.53;;;8.10;99.90;;;;;;5091441;28;20475;-66
2020/12/01 07:22:25;;;;;;;19.60;3.10;;;8.10;99.90;;;;;;5093244;28;20031;-66
2020/12/01 07:24:55;;;;;;;15.57;2.33;;;8.10;99.90;;;;;;5088223;28;20028;-67
2020/12/01 07:27:52;;;;;;;27.65;3.33;;;8.10;99.90;;;;;;5087416;28;20027;-66
2020/12/01 07:30:23;;;;;;;21.83;3.03;;;8.10;99.90;;;;;;5062565;28;20044;-67
2020/12/01 07:32:59;;;;;;;39.22;14.20;;;8.10;99.90;;;;;;5090384;28;20024;-67
2020/12/01 07:35:33;;;;;;;29.27;2.75;;;8.10;99.90;;;;;;5092926;28;20048;-68
2020/12/01 07:38:06;;;;;;;23.98;3.15;;;8.10;99.90;;;;;;5088360;28;20016;-68
2020/12/01 07:40:42;;;;;;;32.35;4.30;;;8.10;99.90;;;;;;5091616;28;20032;-68
2020/12/01 07:43:11;;;;;;;32.88;4.55;;;8.10;99.90;;;;;;5089619;28;20483;-68
2020/12/01 07:45:37;;;;;;;27.58;4.47;;;8.10;99.90;;;;;;5088494;28;20070;-67
2020/12/01 07:48:03;;;;;;;20.45;3.40;;;8.10;99.90;;;;;;5091710;28;20020;-69
2020/12/01 07:50:33;;;;;;;32.72;3.67;;;8.10;99.90;;;;;;5092142;28;20044;-66
2020/12/01 07:53:06;;;;;;;43.53;4.57;;;8.10;99.90;;;;;;5093366;28;20074;-67
2020/12/01 07:55:38;;;;;;;28.63;4.15;;;8.10;99.90;;;;;;5092473;28;20035;-66
2020/12/01 07:58:15;;;;;;;36.30;6.78;;;8.00;99.90;;;;;;5090595;28;20104;-66
2020/12/01 08:00:40;;;;;;;34.58;5.05;;;8.00;99.90;;;;;;5088031;28;20377;-66
2020/12/01 08:03:13;;;;;;;33.88;4.53;;;8.00;99.90;;;;;;5091839;28;20016;-66
2020/12/01 08:05:39;;;;;;;29.48;4.82;;;8.10;99.90;;;;;;5090864;28;20023;-66
2020/12/01 08:08:05;;;;;;;41.05;4.10;;;8.10;99.90;;;;;;5092292;28;20034;-67
2020/12/01 08:10:32;;;;;;;21.55;3.90;;;8.10;99.90;;;;;;5090813;28;20480;-66
2020/12/01 08:13:05;;;;;;;43.20;6.07;;;8.10;99.90;;;;;;5091875;28;20016;-66
2020/12/01 08:15:31;;;;;;;37.28;4.97;;;8.10;99.90;;;;;;5091230;28;20093;-67
2020/12/01 08:18:04;;;;;;;26.80;3.25;;;8.10;99.90;;;;;;5073768;28;20099;-65
2020/12/01 08:20:31;;;;;;;46.25;5.43;;;8.10;99.90;;;;;;5081730;28;20036;-66
2020/12/01 08:23:08;;;;;;;38.85;5.38;;;8.10;99.90;;;;;;5093232;28;20021;-67
2020/12/01 08:25:35;;;;;;;30.92;4.57;;;8.00;99.90;;;;;;5079041;28;20036;-67
2020/12/01 08:28:28;;;;;;;35.67;5.30;;;8.00;99.90;;;;;;5086434;28;20023;-67
2020/12/01 08:30:56;;;;;;;36.08;4.45;;;8.00;99.90;;;;;;5058735;28;20132;-67
2020/12/01 08:33:47;;;;;;;39.80;4.65;;;8.00;99.90;;;;;;5070084;28;20039;-67
2020/12/01 08:36:39;;;;;;;34.90;3.67;;;7.90;99.90;;;;;;5064199;28;20036;-67
2020/12/01 08:39:23;;;;;;;31.02;5.88;;;8.00;99.90;;;;;;5073267;28;20464;-67
2020/12/01 08:42:06;;;;;;;30.23;4.57;;;7.90;99.90;;;;;;5085238;28;20024;-67
2020/12/01 08:44:41;;;;;;;31.60;3.83;;;7.90;99.90;;;;;;5088528;28;20024;-67
2020/12/01 08:47:07;;;;;;;24.95;4.03;;;7.90;99.90;;;;;;5085246;28;20127;-67
2020/12/01 08:49:52;;;;;;;40.83;5.47;;;8.00;99.90;;;;;;5080418;28;20463;-68
2020/12/01 08:52:27;;;;;;;39.00;5.75;;;8.00;99.90;;;;;;5085824;28;20033;-67
2020/12/01 08:55:13;;;;;;;36.33;5.97;;;8.10;99.90;;;;;;5072690;28;20043;-67
2020/12/01 08:57:39;;;;;;;11.73;3.05;;;8.10;99.90;;;;;;5071741;28;20032;-67
2020/12/01 09:00:12;;;;;;;25.10;3.65;;;8.10;99.90;;;;;;5072994;28;20028;-68
2020/12/01 09:02:43;;;;;;;19.73;3.00;;;8.20;99.90;;;;;;5072667;28;20358;-68
2020/12/01 09:05:28;;;;;;;25.50;3.58;;;8.10;99.90;;;;;;5085446;28;20066;-67
2020/12/01 09:08:35;;;;;;;22.45;2.90;;;8.20;99.90;;;;;;5087448;28;20111;-68
2020/12/01 09:14:05;;;;;;;18.45;3.03;;;8.20;99.90;;;;;;5072264;28;20036;-67
2020/12/01 09:21:53;;;;;;;24.75;3.50;;;8.20;99.90;;;;;;5072980;28;20021;-67
2020/12/01 09:24:26;;;;;;;15.25;3.08;;;8.20;99.90;;;;;;5072585;28;20028;-69
2020/12/01 09:27:05;;;;;;;33.65;3.28;;;8.20;99.90;;;;;;5071421;28;20031;-68
2020/12/01 09:29:31;;;;;;;19.33;2.88;;;8.20;99.90;;;;;;5058785;28;20025;-67
2020/12/01 09:31:57;;;;;;;26.75;4.43;;;8.30;99.90;;;;;;5076730;28;20024;-67
2020/12/01 09:34:23;;;;;;;30.92;2.78;;;8.30;99.90;;;;;;5077404;28;20114;-67
2020/12/01 09:36:55;;;;;;;21.33;4.50;;;8.40;99.90;;;;;;5071915;28;20067;-67
2020/12/01 09:39:20;;;;;;;32.05;3.75;;;8.40;99.90;;;;;;5062803;28;20021;-67
2020/12/01 09:41:54;;;;;;;16.77;3.22;;;8.50;99.90;;;;;;5082234;28;20039;-68
2020/12/01 09:47:07;;;;;;;21.33;3.08;;;8.40;99.90;;;;;;5085527;28;20105;-67
2020/12/01 09:49:33;;;;;;;23.35;4.13;;;8.40;99.90;;;;;;5089445;28;20054;-69
2020/12/01 09:52:05;;;;;;;16.00;2.33;;;8.50;99.90;;;;;;5089390;28;20056;-67
2020/12/01 09:54:43;;;;;;;40.15;6.68;;;8.50;99.90;;;;;;5079409;28;20043;-68
2020/12/01 09:57:21;;;;;;;21.00;2.97;;;8.50;99.90;;;;;;5065518;28;20461;-68
2020/12/01 10:08:19;;;;;;;28.75;3.60;;;8.50;99.90;;;;;;5089040;28;20016;-67
2020/12/01 10:11:01;;;;;;;44.95;10.20;;;8.50;99.90;;;;;;5083348;28;20460;-67
2020/12/01 10:19:34;;;;;;;36.53;9.25;;;8.60;99.90;;;;;;5077317;28;20067;-68
2020/12/01 10:22:49;;;;;;;30.67;3.92;;;8.60;99.90;;;;;;5060168;28;20020;-67
2020/12/01 10:35:33;;;;;;;14.10;3.30;;;8.70;99.90;;;;;;5087730;28;20051;-68
2020/12/01 10:38:00;;;;;;;21.27;3.42;;;8.60;99.90;;;;;;5089506;28;20468;-68
2020/12/01 10:40:27;;;;;;;20.73;3.70;;;8.70;99.90;;;;;;5083430;28;20029;-68
2020/12/01 10:42:53;;;;;;;26.95;5.03;;;8.80;99.90;;;;;;5082647;28;20036;-68
2020/12/01 10:45:19;;;;;;;19.15;2.47;;;8.80;99.90;;;;;;5090202;28;20040;-68
2020/12/01 10:47:45;;;;;;;18.40;2.53;;;8.80;99.90;;;;;;5087988;28;20038;-67
2020/12/01 10:50:12;;;;;;;18.35;2.33;;;8.90;99.90;;;;;;5081876;28;20032;-69
2020/12/01 10:52:38;;;;;;;23.00;3.08;;;8.90;99.90;;;;;;5084277;28;20082;-67
2020/12/01 10:55:06;;;;;;;16.33;3.35;;;8.90;99.90;;;;;;5088508;28;20491;-68
2020/12/01 10:57:31;;;;;;;26.92;3.00;;;8.90;99.90;;;;;;5088766;28;20020;-68
2020/12/01 10:59:57;;;;;;;18.27;2.97;;;8.90;99.90;;;;;;5087899;28;20082;-69
2020/12/01 11:02:23;;;;;;;24.80;3.70;;;8.90;99.90;;;;;;5082817;28;20070;-68
2020/12/01 11:04:48;;;;;;;30.05;3.60;;;8.90;99.90;;;;;;5085888;28;20021;-69
2020/12/01 11:07:14;;;;;;;14.20;2.30;;;8.90;99.90;;;;;;5089349;28;20508;-69
2020/12/01 11:09:40;;;;;;;19.08;2.53;;;8.90;99.90;;;;;;5088138;28;20085;-68
2020/12/01 11:12:05;;;;;;;21.88;2.85;;;8.90;99.90;;;;;;5083634;28;20052;-68
2020/12/01 11:14:31;;;;;;;21.35;3.92;;;8.90;99.90;;;;;;5087678;28;20436;-68
2020/12/01 11:16:56;;;;;;;24.45;4.03;;;9.00;99.90;;;;;;5088317;28;20032;-68
2020/12/01 11:19:22;;;;;;;17.13;3.10;;;9.00;99.90;;;;;;5077384;28;20035;-68
2020/12/01 11:21:47;;;;;;;15.00;3.30;;;9.00;99.90;;;;;;5079033;28;20023;-68
2020/12/01 11:24:13;;;;;;;22.73;4.53;;;9.00;99.90;;;;;;5090524;28;20475;-69
2020/12/01 11:26:38;;;;;;;18.48;3.42;;;8.90;99.90;;;;;;5073811;28;20472;-69
2020/12/01 11:29:04;;;;;;;23.20;3.55;;;9.00;99.90;;;;;;5070556;28;20044;-69
2020/12/01 11:31:32;;;;;;;24.15;3.55;;;9.00;99.90;;;;;;5070560;28;20071;-68
2020/12/01 11:34:03;;;;;;;28.85;4.93;;;8.90;99.90;;;;;;5071098;28;20017;-69
2020/12/01 11:36:29;;;;;;;19.00;3.03;;;9.00;99.90;;;;;;5066610;28;20510;-68
2020/12/01 11:38:55;;;;;;;30.23;4.20;;;9.00;99.90;;;;;;5073570;28;20040;-68
2020/12/01 11:41:21;;;;;;;24.08;5.25;;;9.10;99.90;;;;;;5073398;28;20025;-68
2020/12/01 11:43:46;;;;;;;25.00;3.85;;;9.10;99.90;;;;;;5071793;28;20025;-69
2020/12/01 11:46:12;;;;;;;27.00;3.78;;;9.10;99.90;;;;;;5073363;28;20036;-68
2020/12/01 11:48:38;;;;;;;33.38;3.35;;;9.10;99.90;;;;;;5075084;28;20020;-68
2020/12/01 11:51:04;;;;;;;17.05;2.45;;;9.10;99.90;;;;;;5088212;28;20128;-68
2020/12/01 11:53:30;;;;;;;24.70;4.88;;;9.30;99.90;;;;;;5066842;28;20029;-68
2020/12/01 11:55:55;;;;;;;23.15;3.30;;;9.30;99.90;;;;;;5065490;28;20067;-69
2020/12/01 11:58:21;;;;;;;27.05;3.40;;;9.50;99.90;;;;;;5072275;28;20061;-68
2020/12/01 12:00:46;;;;;;;20.65;3.35;;;9.60;99.90;;;;;;5092769;28;20028;-68
2020/12/01 12:03:12;;;;;;;24.50;4.45;;;9.60;99.90;;;;;;5082856;28;20020;-67
2020/12/01 12:05:38;;;;;;;18.73;3.65;;;9.60;99.90;;;;;;5083715;28;20028;-68
2020/12/01 12:08:03;;;;;;;21.27;3.75;;;9.80;99.90;;;;;;5072918;28;20096;-67
2020/12/01 12:10:29;;;;;;;17.23;2.83;;;9.70;99.90;;;;;;5073260;28;20178;-68
2020/12/01 12:12:55;;;;;;;20.63;2.67;;;9.60;99.90;;;;;;5073845;28;20024;-68
2020/12/01 12:15:20;;;;;;;20.67;3.75;;;9.60;99.90;;;;;;5073083;28;20090;-69
2020/12/01 12:17:46;;;;;;;16.38;4.75;;;9.60;99.90;;;;;;5073262;28;20411;-69
2020/12/01 12:20:11;;;;;;;26.23;5.45;;;9.60;99.90;;;;;;5082177;28;20538;-67
2020/12/01 12:22:37;;;;;;;23.48;4.00;;;9.70;99.90;;;;;;5086702;28;20111;-67
2020/12/01 12:25:03;;;;;;;22.02;4.05;;;9.90;99.90;;;;;;5090831;28;20028;-68
2020/12/01 12:27:29;;;;;;;15.43;2.88;;;10.00;99.90;;;;;;5085280;28;20020;-67
2020/12/01 12:29:55;;;;;;;20.13;3.22;;;10.00;99.90;;;;;;5081906;28;20400;-68
2020/12/01 12:32:20;;;;;;;18.23;2.60;;;10.00;99.90;;;;;;5080135;28;20031;-68
2020/12/01 12:34:46;;;;;;;11.85;3.40;;;10.10;99.90;;;;;;5091141;28;20103;-68
2020/12/01 12:37:11;;;;;;;21.88;4.25;;;10.00;99.90;;;;;;5091015;28;20023;-69
2020/12/01 12:39:37;;;;;;;11.48;2.00;;;10.00;99.90;;;;;;5072332;28;20528;-68
2020/12/01 12:42:03;;;;;;;29.15;3.28;;;10.00;99.90;;;;;;5072430;28;20017;-68
2020/12/01 12:44:29;;;;;;;24.63;4.20;;;10.00;99.90;;;;;;5072895;28;20023;-68
2020/12/01 12:46:54;;;;;;;24.40;3.03;;;9.90;99.90;;;;;;5072897;28;20016;-68
2020/12/01 12:49:20;;;;;;;17.52;3.22;;;9.90;99.90;;;;;;5072124;28;20016;-68
2020/12/01 12:51:46;;;;;;;15.65;2.33;;;9.90;99.90;;;;;;5072313;28;20044;-68
2020/12/01 12:54:11;;;;;;;20.00;2.97;;;9.90;99.90;;;;;;5072650;28;20380;-68
2020/12/01 12:56:38;;;;;;;18.08;4.10;;;9.90;99.90;;;;;;5071613;28;20025;-68
2020/12/01 12:59:03;;;;;;;15.13;2.35;;;9.90;99.90;;;;;;5064953;28;20058;-68
2020/12/01 13:01:29;;;;;;;26.27;3.92;;;9.90;99.90;;;;;;5072368;28;20494;-68
2020/12/01 13:03:54;;;;;;;23.38;4.05;;;9.90;99.90;;;;;;5071740;28;20030;-68
2020/12/01 13:06:20;;;;;;;24.98;3.03;;;10.00;99.90;;;;;;5080575;28;20028;-68
2020/12/01 13:08:47;;;;;;;22.42;3.67;;;10.10;99.90;;;;;;5083158;28;20024;-68
2020/12/01 13:11:12;;;;;;;16.70;2.50;;;10.20;99.90;;;;;;5089683;28;20048;-69
2020/12/01 13:13:38;;;;;;;21.67;2.65;;;10.20;99.90;;;;;;5086186;28;20073;-68
2020/12/01 13:16:04;;;;;;;14.55;3.15;;;10.20;99.90;;;;;;5089117;28;20376;-67
2020/12/01 13:18:30;;;;;;;13.90;3.25;;;10.30;99.90;;;;;;5088257;28;20408;-68
2020/12/01 13:20:55;;;;;;;25.92;5.57;;;10.30;99.90;;;;;;5089494;28;20058;-68
2020/12/01 13:23:21;;;;;;;11.63;1.90;;;10.30;99.90;;;;;;5088992;28;20023;-67
2020/12/01 13:25:47;;;;;;;18.48;2.50;;;10.20;99.90;;;;;;5088859;28;20081;-67
2020/12/01 13:28:12;;;;;;;11.55;2.42;;;10.20;99.90;;;;;;5088963;28;20020;-68
2020/12/01 13:30:38;;;;;;;34.28;7.32;;;10.10;99.90;;;;;;5090303;28;20036;-68
2020/12/01 13:33:04;;;;;;;51.70;11.52;;;10.10;99.90;;;;;;5089670;28;20021;-68
2020/12/01 13:35:30;;;;;;;46.00;8.70;;;10.10;99.90;;;;;;5089384;28;20032;-68
2020/12/01 13:37:55;;;;;;;49.55;9.48;;;10.00;99.90;;;;;;5076544;28;20027;-68